createdAt,value
2019-03-08T00:00:54.386Z,4.40
2019-03-08T00:03:23.833Z,5.57
2019-03-08T00:05:53.281Z,5.83
2019-03-08T00:08:22.712Z,4.27
2019-03-08T00:10:52.198Z,5.17
2019-03-08T00:13:21.918Z,5.93
2019-03-08T00:15:51.402Z,6.87
2019-03-08T00:18:20.930Z,7.00
2019-03-08T00:20:50.399Z,8.17
2019-03-08T00:23:19.884Z,6.67
2019-03-08T00:25:49.348Z,5.67
2019-03-08T00:28:18.829Z,7.87
2019-03-08T00:30:48.346Z,7.47
2019-03-08T00:33:17.839Z,8.93
2019-03-08T00:35:47.298Z,5.73
2019-03-08T00:38:16.797Z,4.77
2019-03-08T00:40:46.460Z,5.90
2019-03-08T00:43:15.917Z,8.10
2019-03-08T00:45:45.459Z,6.20
2019-03-08T00:48:14.284Z,9.90
2019-03-08T00:50:43.792Z,7.03
2019-03-08T00:53:13.225Z,7.87
2019-03-08T00:55:42.697Z,4.53
2019-03-08T00:58:12.190Z,6.40
2019-03-08T01:00:42.184Z,7.53
2019-03-08T01:03:11.664Z,6.33
2019-03-08T01:05:41.216Z,6.40
2019-03-08T01:08:11.201Z,5.13
2019-03-08T01:10:40.669Z,6.27
2019-03-08T01:13:11.693Z,8.90
2019-03-08T01:15:42.863Z,8.73
2019-03-08T01:18:12.345Z,10.77
2019-03-08T01:20:42.795Z,12.53
2019-03-08T01:23:13.442Z,11.37
2019-03-08T01:25:44.090Z,13.47
2019-03-08T01:28:16.410Z,14.70
2019-03-08T01:30:46.437Z,14.30
2019-03-08T01:33:17.325Z,13.50
2019-03-08T01:35:49.333Z,14.47
2019-03-08T01:38:18.842Z,13.33
2019-03-08T01:40:48.333Z,11.63
2019-03-08T01:43:17.843Z,13.87
2019-03-08T01:45:47.374Z,14.47
2019-03-08T01:48:16.890Z,11.47
2019-03-08T01:50:46.403Z,12.93
2019-03-08T01:53:15.831Z,12.00
2019-03-08T01:55:45.322Z,10.87
2019-03-08T01:58:14.824Z,12.97
2019-03-08T02:00:44.678Z,20.57
2019-03-08T02:03:14.312Z,14.70
2019-03-08T02:05:43.798Z,11.40
2019-03-08T02:08:13.273Z,14.70
2019-03-08T02:10:42.723Z,12.83
2019-03-08T02:13:13.811Z,12.07
2019-03-08T02:15:43.590Z,13.33
2019-03-08T02:18:14.028Z,9.73
2019-03-08T02:20:43.824Z,14.67
2019-03-08T02:23:14.220Z,8.87
2019-03-08T02:25:45.568Z,8.00
2019-03-08T02:28:14.833Z,8.67
2019-03-08T02:30:46.522Z,6.30
2019-03-08T02:33:16.067Z,3.93
2019-03-08T02:35:45.545Z,4.93
2019-03-08T02:38:15.441Z,6.30
2019-03-08T02:40:45.233Z,4.93
2019-03-08T02:43:16.769Z,7.13
2019-03-08T02:45:46.167Z,6.43
2019-03-08T02:48:16.814Z,5.47
2019-03-08T02:50:46.257Z,5.50
2019-03-08T02:53:16.201Z,9.17
2019-03-08T02:55:45.704Z,6.00
2019-03-08T02:58:15.286Z,5.37
2019-03-08T03:00:46.467Z,3.87
2019-03-08T03:03:17.129Z,4.23
2019-03-08T03:05:46.634Z,5.13
2019-03-08T03:08:16.087Z,4.50
2019-03-08T03:10:45.566Z,4.17
2019-03-08T03:13:15.079Z,8.27
2019-03-08T03:15:44.773Z,4.47
2019-03-08T03:18:14.200Z,4.90
2019-03-08T03:20:43.665Z,5.83
2019-03-08T03:23:13.134Z,6.63
2019-03-08T03:25:42.639Z,4.70
2019-03-08T03:28:12.154Z,5.77
2019-03-08T03:30:41.662Z,5.80
2019-03-08T03:33:11.151Z,5.73
2019-03-08T03:35:40.603Z,6.73
2019-03-08T03:38:10.078Z,5.47
2019-03-08T03:40:39.978Z,5.63
2019-03-08T03:43:09.503Z,5.87
2019-03-08T03:45:38.338Z,6.90
2019-03-08T03:48:08.051Z,6.40
2019-03-08T03:50:37.478Z,5.70
2019-03-08T03:53:07.787Z,9.03
2019-03-08T03:55:37.545Z,7.40
2019-03-08T03:58:07.031Z,7.83
2019-03-08T04:00:36.576Z,7.17
2019-03-08T04:03:06.067Z,9.13
2019-03-08T04:05:35.539Z,6.80
2019-03-08T04:08:05.027Z,5.90
2019-03-08T04:10:34.025Z,7.47
2019-03-08T04:13:03.479Z,7.47
2019-03-08T04:15:33.173Z,5.97
2019-03-08T04:18:04.574Z,8.77
2019-03-08T04:20:33.760Z,7.57
2019-03-08T04:23:03.219Z,5.10
2019-03-08T04:25:33.721Z,6.33
2019-03-08T04:28:03.607Z,7.13
2019-03-08T04:30:34.750Z,7.63
2019-03-08T04:33:04.228Z,7.37
2019-03-08T04:35:34.927Z,7.00
2019-03-08T04:38:04.834Z,8.27
2019-03-08T04:40:36.681Z,6.00
2019-03-08T04:43:05.574Z,10.60
2019-03-08T04:45:35.414Z,7.83
2019-03-08T04:48:06.712Z,13.50
2019-03-08T04:50:36.204Z,8.67
2019-03-08T04:53:05.759Z,12.20
2019-03-08T04:55:36.328Z,9.80
2019-03-08T04:58:07.563Z,11.20
2019-03-08T05:00:37.965Z,9.00
2019-03-08T05:03:07.497Z,8.57
2019-03-08T05:05:37.405Z,10.93
2019-03-08T05:08:07.318Z,11.13
2019-03-08T05:10:36.809Z,11.87
2019-03-08T05:13:06.534Z,9.77
2019-03-08T05:15:36.032Z,7.43
2019-03-08T05:18:06.431Z,10.43
2019-03-08T05:20:36.190Z,9.30
2019-03-08T05:23:05.698Z,6.77
2019-03-08T05:25:36.960Z,9.70
2019-03-08T05:28:06.411Z,11.03
2019-03-08T05:30:35.594Z,8.83
2019-03-08T05:33:05.098Z,12.03
2019-03-08T05:35:35.782Z,11.10
2019-03-08T05:38:05.266Z,10.73
2019-03-08T05:40:34.724Z,11.90
2019-03-08T05:43:04.661Z,11.70
2019-03-08T05:45:34.117Z,15.73
2019-03-08T05:48:03.640Z,10.03
2019-03-08T05:50:33.127Z,10.97
2019-03-08T05:53:02.578Z,10.63
2019-03-08T05:55:32.073Z,13.87
2019-03-08T05:58:01.016Z,9.77
2019-03-08T06:00:35.251Z,9.67
2019-03-08T06:03:07.575Z,12.60
2019-03-08T06:05:37.062Z,11.13
2019-03-08T06:08:08.927Z,11.60
2019-03-08T06:10:38.746Z,12.13
2019-03-08T06:13:08.330Z,10.57
2019-03-08T06:15:37.660Z,12.77
2019-03-08T06:18:07.163Z,16.83
2019-03-08T06:20:36.660Z,13.57
2019-03-08T06:23:08.448Z,24.97
2019-03-08T06:25:37.946Z,17.20
2019-03-08T06:28:08.387Z,22.73
2019-03-08T06:30:38.751Z,19.30
2019-03-08T06:33:07.565Z,25.33
2019-03-08T06:35:37.948Z,16.57
2019-03-08T06:38:07.432Z,16.23
2019-03-08T06:40:36.910Z,17.50
2019-03-08T06:43:07.552Z,19.40
2019-03-08T06:45:36.978Z,17.13
2019-03-08T06:48:06.598Z,15.33
2019-03-08T06:50:36.080Z,13.60
2019-03-08T06:53:05.536Z,17.03
2019-03-08T06:55:37.774Z,12.43
2019-03-08T06:58:07.316Z,17.40
2019-03-08T07:01:01.521Z,14.43
2019-03-08T07:03:31.008Z,20.87
2019-03-08T07:06:00.477Z,15.30
2019-03-08T07:08:29.934Z,12.73
2019-03-08T07:11:01.687Z,14.43
2019-03-08T07:13:34.694Z,14.63
2019-03-08T07:16:12.974Z,13.90
2019-03-08T07:18:41.861Z,15.80
2019-03-08T07:21:18.756Z,12.70
2019-03-08T07:24:05.982Z,16.07
2019-03-08T07:26:53.312Z,26.80
2019-03-08T07:29:41.658Z,22.03
2019-03-08T07:32:28.571Z,15.10
2019-03-08T07:35:16.998Z,18.60
2019-03-08T07:38:18.451Z,16.77
2019-03-08T07:41:12.601Z,18.50
2019-03-08T07:44:12.977Z,14.30
2019-03-08T07:46:51.906Z,13.77
2019-03-08T07:49:43.104Z,14.57
2019-03-08T07:52:21.698Z,17.93
2019-03-08T07:55:14.037Z,18.00
2019-03-08T07:58:09.723Z,16.43
2019-03-08T08:00:46.709Z,12.73
2019-03-08T08:03:44.581Z,13.23
2019-03-08T08:06:19.290Z,12.70
2019-03-08T08:09:13.477Z,15.37
2019-03-08T08:12:02.402Z,21.53
2019-03-08T08:14:44.017Z,16.33
2019-03-08T08:17:38.465Z,17.77
2019-03-08T08:20:16.733Z,17.40
2019-03-08T08:23:17.475Z,19.57
2019-03-08T08:26:20.875Z,22.87
2019-03-08T08:29:08.114Z,19.57
2019-03-08T08:31:56.599Z,17.73
2019-03-08T08:34:33.169Z,17.53
2019-03-08T08:37:19.143Z,29.23
2019-03-08T08:40:06.410Z,19.27
2019-03-08T08:43:13.139Z,16.53
2019-03-08T08:46:07.663Z,21.80
2019-03-08T08:48:56.082Z,16.87
2019-03-08T08:51:46.030Z,19.70
2019-03-08T08:54:49.791Z,22.87
2019-03-08T08:57:40.969Z,25.90
2019-03-08T09:00:28.515Z,25.07
2019-03-08T09:03:22.810Z,29.63
2019-03-08T09:06:26.607Z,22.07
2019-03-08T09:09:09.191Z,20.17
2019-03-08T09:11:57.536Z,23.70
2019-03-08T09:14:34.293Z,21.03
2019-03-08T09:17:21.449Z,19.17
2019-03-08T09:20:09.877Z,19.07
2019-03-08T09:22:50.861Z,22.37
2019-03-08T09:25:34.515Z,21.23
2019-03-08T09:28:35.105Z,20.47
2019-03-08T09:31:35.686Z,17.70
2019-03-08T09:34:18.338Z,18.83
2019-03-08T09:36:56.423Z,21.73
2019-03-08T09:39:44.801Z,16.83
2019-03-08T09:42:23.692Z,19.07
2019-03-08T09:45:12.119Z,23.13
2019-03-08T09:47:59.730Z,18.33
2019-03-08T09:50:38.495Z,17.43
2019-03-08T09:53:21.589Z,15.87
2019-03-08T09:56:22.068Z,19.00
2019-03-08T09:59:27.465Z,15.53
2019-03-08T10:02:22.155Z,21.30
2019-03-08T10:05:06.932Z,20.33
2019-03-08T10:07:41.647Z,13.63
2019-03-08T10:10:28.646Z,16.13
2019-03-08T10:13:11.705Z,10.63
2019-03-08T10:15:51.652Z,13.60
2019-03-08T10:18:30.697Z,12.20
2019-03-08T10:21:31.190Z,16.20
2019-03-08T10:24:28.454Z,12.53
2019-03-08T10:27:15.615Z,8.67
2019-03-08T10:30:02.541Z,14.77
2019-03-08T10:32:46.018Z,14.43
2019-03-08T10:35:38.743Z,11.90
2019-03-08T10:38:22.619Z,12.07
2019-03-08T10:40:58.577Z,15.40
2019-03-08T10:43:53.087Z,14.43
2019-03-08T10:46:32.451Z,13.40
2019-03-08T10:49:17.301Z,14.20
2019-03-08T10:51:53.966Z,13.13
2019-03-08T10:54:32.703Z,11.57
2019-03-08T10:57:29.944Z,15.20
2019-03-08T11:00:36.400Z,13.50
2019-03-08T11:03:27.570Z,13.43
2019-03-08T11:06:06.042Z,20.70
2019-03-08T11:08:53.792Z,14.07
2019-03-08T11:11:43.963Z,16.07
2019-03-08T11:14:38.150Z,18.27
2019-03-08T11:17:32.119Z,17.00
2019-03-08T11:20:19.521Z,15.27
2019-03-08T11:23:13.711Z,15.60
2019-03-08T11:26:00.800Z,13.03
2019-03-08T11:28:49.188Z,15.20
2019-03-08T11:31:40.403Z,16.90
2019-03-08T11:34:19.646Z,19.10
2019-03-08T11:36:56.883Z,12.83
2019-03-08T11:39:45.743Z,13.00
2019-03-08T11:42:27.142Z,12.90
2019-03-08T11:45:26.233Z,15.93
2019-03-08T11:48:14.579Z,12.20
2019-03-08T11:51:03.349Z,10.30
2019-03-08T11:53:55.891Z,12.33
2019-03-08T11:56:42.732Z,14.43
2019-03-08T11:59:30.102Z,12.40
2019-03-08T12:02:18.528Z,13.27
2019-03-08T12:04:57.790Z,12.50
2019-03-08T12:07:33.243Z,12.90
2019-03-08T12:10:27.818Z,12.70
2019-03-08T12:13:08.797Z,12.87
2019-03-08T12:16:00.211Z,14.47
2019-03-08T12:18:51.707Z,9.03
2019-03-08T12:21:39.169Z,17.63
2019-03-08T12:24:23.311Z,13.27
2019-03-08T12:27:05.211Z,11.97
2019-03-08T12:30:04.312Z,16.77
2019-03-08T12:32:51.240Z,16.07
2019-03-08T12:35:44.927Z,16.07
2019-03-08T12:38:29.569Z,14.70
2019-03-08T12:41:16.692Z,16.93
2019-03-08T12:44:09.852Z,18.70
2019-03-08T12:46:53.466Z,14.00
2019-03-08T12:49:51.058Z,13.17
2019-03-08T12:52:35.634Z,9.27
2019-03-08T12:55:27.261Z,13.40
2019-03-08T12:58:14.986Z,24.90
2019-03-08T13:00:59.739Z,11.17
2019-03-08T13:03:54.335Z,8.37
2019-03-08T13:06:41.845Z,11.17
2019-03-08T13:09:31.187Z,10.67
2019-03-08T13:12:00.630Z,11.53
2019-03-08T13:14:30.074Z,13.40
2019-03-08T13:16:59.546Z,9.93
2019-03-08T13:19:29.043Z,12.30
2019-03-08T13:21:58.472Z,13.27
2019-03-08T13:24:27.353Z,9.63
2019-03-08T13:26:56.794Z,8.83
2019-03-08T13:29:26.298Z,12.57
2019-03-08T13:31:55.770Z,11.43
2019-03-08T13:34:25.194Z,8.47
2019-03-08T13:36:54.718Z,12.23
2019-03-08T13:39:23.583Z,10.63
2019-03-08T13:41:53.060Z,10.80
2019-03-08T13:44:22.509Z,13.87
2019-03-08T13:46:51.938Z,16.50
2019-03-08T13:49:21.585Z,15.60
2019-03-08T13:51:51.088Z,10.97
2019-03-08T13:54:20.573Z,15.83
2019-03-08T13:56:49.995Z,15.73
2019-03-08T13:59:19.555Z,10.00
2019-03-08T14:01:48.413Z,14.23
2019-03-08T14:04:17.842Z,9.17
2019-03-08T14:06:47.327Z,12.73
2019-03-08T14:09:17.942Z,12.23
2019-03-08T14:11:47.456Z,11.57
2019-03-08T14:14:16.285Z,13.30
2019-03-08T14:16:46.075Z,12.17
2019-03-08T14:19:15.583Z,18.37
2019-03-08T14:21:45.035Z,10.13
2019-03-08T14:24:14.451Z,11.10
2019-03-08T14:26:43.903Z,9.67
2019-03-08T14:29:13.409Z,8.83
2019-03-08T14:31:49.306Z,10.17
2019-03-08T14:34:19.651Z,11.20
2019-03-08T14:36:49.598Z,14.10
2019-03-08T14:39:19.932Z,10.87
2019-03-08T14:42:05.391Z,12.93
2019-03-08T14:44:54.448Z,14.43
2019-03-08T14:47:33.458Z,15.13
2019-03-08T14:50:02.375Z,8.63
2019-03-08T14:52:32.400Z,7.40
2019-03-08T14:55:02.321Z,7.03
2019-03-08T14:57:32.268Z,9.50
2019-03-08T15:00:02.532Z,10.77
2019-03-08T15:02:42.020Z,9.80
2019-03-08T15:05:18.695Z,8.70
2019-03-08T15:07:54.438Z,4.43
2019-03-08T15:10:39.055Z,9.93
2019-03-08T15:13:13.267Z,8.87
2019-03-08T15:15:51.510Z,8.17
2019-03-08T15:18:31.217Z,9.97
2019-03-08T15:21:10.960Z,6.23
2019-03-08T15:23:50.918Z,9.23
2019-03-08T15:26:26.915Z,8.43
2019-03-08T15:29:04.421Z,9.50
2019-03-08T15:31:43.540Z,10.47
2019-03-08T15:34:21.778Z,7.13
2019-03-08T15:36:57.972Z,10.67
2019-03-08T15:39:36.438Z,9.30
2019-03-08T15:42:06.580Z,10.10
2019-03-08T15:44:36.056Z,7.40
2019-03-08T15:47:05.657Z,9.30
2019-03-08T15:49:34.466Z,8.90
2019-03-08T15:52:04.647Z,6.83
2019-03-08T15:54:34.515Z,6.40
2019-03-08T15:57:03.985Z,7.97
2019-03-08T15:59:33.471Z,5.93
2019-03-08T16:02:06.177Z,6.80
2019-03-08T16:04:33.431Z,8.07
2019-03-08T16:07:03.074Z,8.60
2019-03-08T16:09:32.566Z,11.43
2019-03-08T16:12:01.975Z,8.30
2019-03-08T16:14:31.431Z,7.67
2019-03-08T16:17:00.976Z,13.43
2019-03-08T16:19:30.661Z,6.33
2019-03-08T16:22:00.119Z,7.10
2019-03-08T16:24:31.264Z,8.97
2019-03-08T16:27:02.420Z,8.93
2019-03-08T16:29:31.661Z,8.60
2019-03-08T16:32:12.661Z,9.13
2019-03-08T16:34:41.940Z,7.57
2019-03-08T16:37:24.919Z,9.10
2019-03-08T16:40:00.311Z,8.23
2019-03-08T16:42:48.431Z,5.83
2019-03-08T16:45:45.881Z,10.17
2019-03-08T16:48:25.795Z,9.37
2019-03-08T16:51:01.438Z,9.23
2019-03-08T16:53:45.452Z,10.23
2019-03-08T16:56:29.863Z,8.67
2019-03-08T16:59:09.656Z,7.90
2019-03-08T17:01:48.740Z,9.77
2019-03-08T17:04:29.978Z,7.37
2019-03-08T17:07:19.234Z,10.60
2019-03-08T17:10:10.668Z,10.10
2019-03-08T17:12:59.052Z,8.93
2019-03-08T17:15:52.199Z,9.70
2019-03-08T17:18:50.316Z,10.20
2019-03-08T17:21:37.657Z,6.53
2019-03-08T17:24:34.846Z,7.60
2019-03-08T17:27:19.774Z,7.77
2019-03-08T17:30:14.331Z,8.53
2019-03-08T17:33:05.443Z,6.43
2019-03-08T17:36:03.214Z,7.40
2019-03-08T17:38:43.246Z,7.30
2019-03-08T17:41:49.889Z,9.43
2019-03-08T17:44:28.205Z,8.63
2019-03-08T17:47:08.807Z,8.70
2019-03-08T17:50:06.084Z,11.10
2019-03-08T17:53:12.952Z,10.03
2019-03-08T17:55:51.446Z,6.70
2019-03-08T17:58:36.938Z,6.87
2019-03-08T18:01:21.975Z,5.83
2019-03-08T18:04:08.311Z,11.23
2019-03-08T18:07:02.655Z,5.67
2019-03-08T18:09:51.311Z,8.23
2019-03-08T18:12:36.296Z,9.50
2019-03-08T18:15:14.075Z,9.80
2019-03-08T18:18:20.847Z,5.93
2019-03-08T18:21:12.197Z,7.30
2019-03-08T18:23:53.967Z,9.90
2019-03-08T18:26:42.463Z,6.37
2019-03-08T18:29:33.751Z,6.60
2019-03-08T18:32:24.999Z,5.70
2019-03-08T18:35:02.342Z,9.07
2019-03-08T18:37:53.762Z,9.50
2019-03-08T18:40:40.481Z,12.97
2019-03-08T18:43:28.880Z,6.77
2019-03-08T18:46:16.218Z,9.23
2019-03-08T18:48:58.918Z,10.07
2019-03-08T18:51:56.098Z,5.10
2019-03-08T18:54:53.714Z,7.17
2019-03-08T18:57:45.281Z,7.17
2019-03-08T19:00:30.860Z,7.33
2019-03-08T19:03:28.401Z,6.20
2019-03-08T19:06:16.914Z,7.37
2019-03-08T19:09:04.691Z,5.63
2019-03-08T19:11:51.970Z,5.10
2019-03-08T19:14:47.547Z,5.13
2019-03-08T19:17:42.015Z,6.30
2019-03-08T19:20:36.179Z,6.50
2019-03-08T19:23:22.625Z,6.20
2019-03-08T19:26:02.819Z,5.63
2019-03-08T19:28:57.213Z,9.77
2019-03-08T19:31:31.229Z,7.10
2019-03-08T19:34:18.159Z,9.77
2019-03-08T19:37:04.358Z,8.70
2019-03-08T19:39:41.972Z,7.77
2019-03-08T19:42:23.241Z,6.53
2019-03-08T19:45:14.658Z,8.50
2019-03-08T19:48:05.131Z,7.67
2019-03-08T19:50:52.087Z,8.73
2019-03-08T19:53:38.951Z,8.63
2019-03-08T19:56:39.660Z,10.10
2019-03-08T19:59:26.557Z,11.00
2019-03-08T20:02:05.622Z,7.33
2019-03-08T20:04:50.927Z,9.43
2019-03-08T20:07:41.134Z,10.63
2019-03-08T20:10:28.413Z,13.50
2019-03-08T20:13:04.310Z,7.77
2019-03-08T20:16:11.013Z,9.63
2019-03-08T20:18:57.714Z,10.80
2019-03-08T20:21:46.115Z,8.37
2019-03-08T20:24:24.985Z,8.23
2019-03-08T20:27:13.402Z,10.27
2019-03-08T20:30:04.783Z,11.67
2019-03-08T20:32:44.720Z,12.40
2019-03-08T20:35:29.711Z,13.00
2019-03-08T20:38:06.292Z,10.70
2019-03-08T20:40:50.131Z,13.47
2019-03-08T20:43:47.990Z,7.47
2019-03-08T20:46:39.752Z,6.90
2019-03-08T20:49:09.269Z,5.87
2019-03-08T20:51:38.730Z,4.50
2019-03-08T20:54:08.188Z,4.13
2019-03-08T20:56:37.045Z,5.23
2019-03-08T20:59:07.113Z,3.13
2019-03-08T21:01:36.705Z,4.70
2019-03-08T21:04:06.122Z,5.10
2019-03-08T21:06:35.551Z,2.97
2019-03-08T21:09:07.506Z,3.10
2019-03-08T21:11:37.242Z,3.43
2019-03-08T21:14:06.693Z,3.30
2019-03-08T21:16:37.409Z,4.47
2019-03-08T21:19:07.039Z,3.30
2019-03-08T21:21:36.506Z,3.93
2019-03-08T21:24:06.206Z,4.50
2019-03-08T21:26:35.064Z,4.53
2019-03-08T21:29:04.548Z,3.90
2019-03-08T21:31:33.978Z,5.27
2019-03-08T21:34:03.539Z,4.30
2019-03-08T21:36:32.379Z,4.63
2019-03-08T21:39:01.858Z,5.57
2019-03-08T21:41:31.291Z,6.80
2019-03-08T21:44:00.758Z,7.57
2019-03-08T21:46:30.218Z,7.50
2019-03-08T21:48:59.938Z,7.57
2019-03-08T21:51:29.390Z,8.10
2019-03-08T21:53:58.802Z,8.80
2019-03-08T21:56:28.250Z,9.10
2019-03-08T21:58:57.699Z,8.90
2019-03-08T22:01:26.861Z,9.33
2019-03-08T22:04:01.532Z,9.40
2019-03-08T22:06:31.032Z,10.73
2019-03-08T22:09:18.227Z,9.93
2019-03-08T22:11:48.206Z,9.70
2019-03-08T22:14:17.676Z,10.73
2019-03-08T22:16:47.115Z,11.27
2019-03-08T22:19:16.570Z,10.37
2019-03-08T22:21:46.065Z,12.53
2019-03-08T22:24:15.931Z,9.97
2019-03-08T22:26:45.422Z,10.30
2019-03-08T22:29:14.909Z,9.27
2019-03-08T22:31:44.548Z,9.73
2019-03-08T22:34:13.991Z,9.50
2019-03-08T22:36:43.961Z,8.60
2019-03-08T22:39:13.474Z,9.87
2019-03-08T22:41:42.938Z,9.37
2019-03-08T22:44:12.419Z,7.60
2019-03-08T22:46:45.275Z,9.73
2019-03-08T22:49:12.420Z,7.17
2019-03-08T22:51:41.905Z,9.70
2019-03-08T22:54:11.412Z,12.97
2019-03-08T22:56:40.901Z,6.97
2019-03-08T22:59:10.370Z,10.40
2019-03-08T23:01:46.387Z,8.83
2019-03-08T23:04:15.876Z,9.30
2019-03-08T23:06:45.355Z,8.17
2019-03-08T23:09:16.275Z,7.90
2019-03-08T23:11:45.780Z,7.40
2019-03-08T23:14:15.231Z,8.70
2019-03-08T23:16:44.727Z,9.83
2019-03-08T23:19:13.574Z,10.10
2019-03-08T23:21:43.043Z,9.40
2019-03-08T23:24:12.477Z,11.67
2019-03-08T23:27:01.954Z,9.73
2019-03-08T23:29:40.195Z,9.10
2019-03-08T23:32:14.455Z,10.60
2019-03-08T23:34:43.958Z,8.47
2019-03-08T23:37:13.418Z,13.07
2019-03-08T23:39:42.894Z,10.10
2019-03-08T23:42:12.355Z,9.23
2019-03-08T23:44:41.855Z,10.93
2019-03-08T23:47:11.341Z,10.90
2019-03-08T23:49:40.818Z,11.70
2019-03-08T23:52:10.313Z,8.73
2019-03-08T23:54:39.803Z,12.20
2019-03-08T23:57:08.663Z,12.97
2019-03-08T23:59:37.525Z,10.03
